createdAt,value
2022-11-29T00:01:23.418Z,37.55
2022-11-29T00:06:25.048Z,46.72
2022-11-29T00:11:26.544Z,60.92
2022-11-29T00:16:28.084Z,61.30
2022-11-29T00:21:29.604Z,27.35
2022-11-29T00:26:31.088Z,54.25
2022-11-29T00:31:32.579Z,42.15
2022-11-29T00:36:34.079Z,39.88
2022-11-29T00:41:35.562Z,48.80
2022-11-29T00:46:37.016Z,59.10
2022-11-29T00:51:38.507Z,53.80
2022-11-29T00:56:42.084Z,31.42
2022-11-29T01:01:43.609Z,62.53
2022-11-29T01:06:45.155Z,59.97
2022-11-29T01:11:46.607Z,47.72
2022-11-29T01:16:48.182Z,52.25
2022-11-29T01:21:49.736Z,24.08
2022-11-29T01:26:51.219Z,52.00
2022-11-29T01:31:52.680Z,63.78
2022-11-29T01:36:54.156Z,41.40
2022-11-29T01:41:55.674Z,57.00
2022-11-29T01:46:57.153Z,51.85
2022-11-29T01:51:58.600Z,37.53
2022-11-29T01:57:00.102Z,39.22
2022-11-29T02:02:01.590Z,40.38
2022-11-29T02:07:03.070Z,45.60
2022-11-29T02:12:04.542Z,55.17
2022-11-29T02:17:06.024Z,48.50
2022-11-29T02:22:07.526Z,27.35
2022-11-29T02:27:09.018Z,49.40
2022-11-29T02:32:10.487Z,37.85
2022-11-29T02:37:11.999Z,49.15
2022-11-29T02:42:13.529Z,49.38
2022-11-29T02:47:15.024Z,51.47
2022-11-29T02:52:16.509Z,44.22
2022-11-29T02:57:17.960Z,46.60
2022-11-29T03:02:19.498Z,49.47
2022-11-29T03:07:21.060Z,47.25
2022-11-29T03:12:22.557Z,48.75
2022-11-29T03:17:24.079Z,42.88
2022-11-29T03:22:25.599Z,23.55
2022-11-29T03:27:27.124Z,36.72
2022-11-29T03:32:28.628Z,51.95
2022-11-29T03:37:30.126Z,13.40
2022-11-29T03:42:31.627Z,44.53
2022-11-29T03:47:33.131Z,44.72
2022-11-29T03:52:34.648Z,40.95
2022-11-29T03:57:36.108Z,36.83
2022-11-29T04:02:37.621Z,51.72
2022-11-29T04:07:39.172Z,46.97
2022-11-29T04:12:40.709Z,44.10
2022-11-29T04:17:42.170Z,17.63
2022-11-29T04:22:43.674Z,43.70
2022-11-29T04:27:45.150Z,39.50
2022-11-29T04:32:46.634Z,36.13
2022-11-29T04:37:48.169Z,38.28
2022-11-29T04:42:49.655Z,29.58
2022-11-29T04:47:51.114Z,31.38
2022-11-29T04:52:52.586Z,34.58
2022-11-29T04:57:54.085Z,9.93
2022-11-29T05:02:55.654Z,23.92
2022-11-29T05:07:57.188Z,34.80
2022-11-29T05:12:58.673Z,35.70
2022-11-29T05:18:00.160Z,25.95
2022-11-29T05:23:01.656Z,19.70
2022-11-29T05:28:08.472Z,30.17
2022-11-29T05:33:11.464Z,42.55
2022-11-29T05:38:12.917Z,35.22
2022-11-29T05:43:14.389Z,24.23
2022-11-29T05:48:15.846Z,20.25
2022-11-29T05:53:17.333Z,33.47
2022-11-29T05:58:18.837Z,41.90
2022-11-29T06:03:20.327Z,9.38
2022-11-29T06:08:21.787Z,36.70
2022-11-29T06:13:23.243Z,28.75
2022-11-29T06:18:24.732Z,28.80
2022-11-29T06:23:26.227Z,27.27
2022-11-29T06:28:27.690Z,41.13
2022-11-29T06:33:29.162Z,20.58
2022-11-29T06:38:30.618Z,29.92
2022-11-29T06:43:32.081Z,37.40
2022-11-29T06:48:33.552Z,36.63
2022-11-29T06:53:35.011Z,34.35
2022-11-29T06:58:36.604Z,41.33
2022-11-29T07:03:38.137Z,26.70
2022-11-29T07:08:39.632Z,16.25
2022-11-29T07:13:41.180Z,41.40
2022-11-29T07:18:42.678Z,20.13
2022-11-29T07:23:44.225Z,44.40
2022-11-29T07:28:45.750Z,44.58
2022-11-29T07:33:47.235Z,41.58
2022-11-29T07:38:48.717Z,39.17
2022-11-29T07:43:50.214Z,31.92
2022-11-29T07:48:51.659Z,18.50
2022-11-29T07:53:53.145Z,35.72
2022-11-29T07:58:54.675Z,45.60
2022-11-29T08:03:56.195Z,36.65
2022-11-29T08:08:57.689Z,28.40
2022-11-29T08:13:59.169Z,33.25
2022-11-29T08:19:00.661Z,40.45
2022-11-29T08:24:02.133Z,35.08
2022-11-29T08:29:03.641Z,38.38
2022-11-29T08:34:05.143Z,36.25
2022-11-29T08:39:09.527Z,36.15
2022-11-29T08:44:11.312Z,38.60
2022-11-29T08:49:12.796Z,35.00
2022-11-29T08:54:14.269Z,34.28
2022-11-29T08:59:15.769Z,46.08
2022-11-29T09:04:17.255Z,39.80
2022-11-29T09:09:18.754Z,31.02
2022-11-29T09:14:21.288Z,42.75
2022-11-29T09:19:22.750Z,51.33
2022-11-29T09:24:24.211Z,35.38
2022-11-29T09:29:25.692Z,27.88
2022-11-29T09:34:27.183Z,35.65
2022-11-29T09:39:28.671Z,37.80
2022-11-29T09:44:30.130Z,38.75
2022-11-29T09:49:31.628Z,26.60
2022-11-29T09:54:33.109Z,46.33
2022-11-29T09:59:34.589Z,43.88
2022-11-29T10:04:36.057Z,28.23
2022-11-29T10:09:37.560Z,25.33
2022-11-29T10:14:39.077Z,23.40
2022-11-29T10:19:40.569Z,39.53
2022-11-29T10:24:42.160Z,36.17
2022-11-29T10:29:43.784Z,37.67
2022-11-29T10:34:45.553Z,30.85
2022-11-29T10:39:47.152Z,38.53
2022-11-29T10:44:48.619Z,36.50
2022-11-29T10:49:50.096Z,40.92
2022-11-29T10:54:51.540Z,36.92
2022-11-29T10:59:52.981Z,36.08
2022-11-29T11:04:54.449Z,37.00
2022-11-29T11:09:55.950Z,32.72
2022-11-29T11:14:57.488Z,38.00
2022-11-29T11:19:59.042Z,36.45
2022-11-29T11:25:00.589Z,39.33
2022-11-29T11:30:02.097Z,28.38
2022-11-29T11:35:03.619Z,37.67
2022-11-29T11:40:05.137Z,27.60
2022-11-29T11:45:06.629Z,39.47
2022-11-29T11:50:08.124Z,24.65
2022-11-29T11:55:09.594Z,33.78
2022-11-29T12:00:11.074Z,40.30
2022-11-29T12:05:12.545Z,67.20
2022-11-29T12:10:14.002Z,42.35
2022-11-29T12:15:15.506Z,41.42
2022-11-29T12:20:17.013Z,43.45
2022-11-29T12:25:18.509Z,33.92
2022-11-29T12:30:19.995Z,47.90
2022-11-29T12:35:21.496Z,35.85
2022-11-29T12:40:22.990Z,41.28
2022-11-29T12:45:24.512Z,36.45
2022-11-29T12:50:26.020Z,38.15
2022-11-29T12:55:27.509Z,40.35
2022-11-29T13:00:28.968Z,40.22
2022-11-29T13:05:30.446Z,42.92
2022-11-29T13:10:31.902Z,43.78
2022-11-29T13:15:33.397Z,35.83
2022-11-29T13:20:34.886Z,21.38
2022-11-29T13:25:36.373Z,28.20
2022-11-29T13:30:37.869Z,33.08
2022-11-29T13:35:39.335Z,33.03
2022-11-29T13:40:40.815Z,31.40
2022-11-29T13:45:42.270Z,32.63
2022-11-29T13:50:43.791Z,30.00
2022-11-29T13:55:45.292Z,24.13
2022-11-29T14:00:46.784Z,30.55
2022-11-29T14:05:48.269Z,30.40
2022-11-29T14:10:49.757Z,21.65
2022-11-29T14:15:51.276Z,31.20
2022-11-29T14:20:52.781Z,32.70
2022-11-29T14:25:54.226Z,36.47
2022-11-29T14:30:55.843Z,35.88
2022-11-29T14:35:57.368Z,30.50
2022-11-29T14:40:58.867Z,32.60
2022-11-29T14:46:00.341Z,37.00
2022-11-29T14:51:01.846Z,28.17
2022-11-29T14:56:03.317Z,35.00
2022-11-29T15:01:09.979Z,32.08
2022-11-29T15:06:12.282Z,34.60
2022-11-29T15:11:13.802Z,32.00
2022-11-29T15:16:15.482Z,31.50
2022-11-29T15:21:17.020Z,34.05
2022-11-29T15:36:53.118Z,30.77
2022-11-29T15:41:54.676Z,35.63
2022-11-29T15:46:56.172Z,27.63
2022-11-29T15:51:57.730Z,32.20
2022-11-29T15:56:59.227Z,39.90
2022-11-29T16:02:00.821Z,35.10
2022-11-29T16:07:02.355Z,39.80
2022-11-29T16:12:03.842Z,32.22
2022-11-29T16:17:05.308Z,19.88
2022-11-29T16:22:06.807Z,32.30
2022-11-29T16:27:08.306Z,34.05
2022-11-29T16:32:09.867Z,37.50
2022-11-29T16:37:11.388Z,26.95
2022-11-29T16:42:12.892Z,40.75
2022-11-29T16:47:14.453Z,30.13
2022-11-29T16:52:15.958Z,39.03
2022-11-29T16:57:17.459Z,35.88
2022-11-29T17:02:18.970Z,39.97
2022-11-29T17:07:20.548Z,35.38
2022-11-29T17:12:22.067Z,39.10
2022-11-29T17:17:23.594Z,34.08
2022-11-29T17:22:25.115Z,34.78
2022-11-29T17:27:26.665Z,34.45
2022-11-29T17:32:28.130Z,35.95
2022-11-29T17:37:29.592Z,34.10
2022-11-29T17:42:31.057Z,28.67
2022-11-29T17:47:32.563Z,30.30
2022-11-29T17:52:34.105Z,32.70
2022-11-29T17:57:35.640Z,36.58
2022-11-29T18:02:37.233Z,36.22
2022-11-29T18:07:38.768Z,32.30
2022-11-29T18:12:40.269Z,28.92
2022-11-29T18:17:41.751Z,36.08
2022-11-29T18:22:43.251Z,37.33
2022-11-29T18:27:44.776Z,35.47
2022-11-29T18:32:46.299Z,36.40
2022-11-29T18:38:14.230Z,26.77
2022-11-29T18:43:09.361Z,26.27
2022-11-29T18:48:10.853Z,33.75
2022-11-29T18:53:12.361Z,29.13
2022-11-29T18:58:13.886Z,42.80
2022-11-29T19:03:15.370Z,39.13
2022-11-29T19:08:16.862Z,39.65
2022-11-29T19:13:18.369Z,58.42
2022-11-29T19:18:19.895Z,64.78
2022-11-29T19:23:21.375Z,50.35
2022-11-29T19:28:22.906Z,61.15
2022-11-29T19:33:24.424Z,35.13
2022-11-29T19:38:25.929Z,50.05
2022-11-29T19:43:27.429Z,69.30
2022-11-29T19:48:28.934Z,71.90
2022-11-29T19:53:30.484Z,58.45
2022-11-29T19:58:32.028Z,56.25
2022-11-29T20:03:33.577Z,32.75
2022-11-29T20:08:35.101Z,45.42
2022-11-29T20:13:36.638Z,62.13
2022-11-29T20:18:38.160Z,45.47
2022-11-29T20:23:39.674Z,61.53
2022-11-29T20:28:41.185Z,45.47
2022-11-29T20:33:42.697Z,58.10
2022-11-29T20:38:44.187Z,56.17
2022-11-29T20:43:45.714Z,73.05
2022-11-29T20:48:47.246Z,84.95
2022-11-29T20:53:48.743Z,70.05
2022-11-29T20:58:50.247Z,78.53
2022-11-29T21:03:51.799Z,81.18
2022-11-29T21:08:53.332Z,86.72
2022-11-29T21:13:54.853Z,69.30
2022-11-29T21:18:56.405Z,55.78
2022-11-29T21:23:57.889Z,62.53
2022-11-29T21:28:59.360Z,70.07
2022-11-29T21:34:00.837Z,85.63
2022-11-29T21:39:05.151Z,89.40
2022-11-29T21:44:08.064Z,70.30
2022-11-29T21:49:09.920Z,75.10
2022-11-29T21:54:11.424Z,85.78
2022-11-29T21:59:12.944Z,99.22
2022-11-29T22:04:14.525Z,58.85
2022-11-29T22:09:16.047Z,84.15
2022-11-29T22:14:17.586Z,56.80
2022-11-29T22:19:19.126Z,76.93
2022-11-29T22:24:20.636Z,118.05
2022-11-29T22:29:22.160Z,101.85
2022-11-29T22:34:23.686Z,101.28
2022-11-29T22:39:25.216Z,100.55
2022-11-29T22:44:26.726Z,72.40
2022-11-29T22:49:28.222Z,78.97
2022-11-29T22:54:29.735Z,97.18
2022-11-29T22:59:31.245Z,113.88
2022-11-29T23:04:32.796Z,96.80
2022-11-29T23:09:34.270Z,100.75
2022-11-29T23:14:35.790Z,92.40
2022-11-29T23:19:37.327Z,98.20
2022-11-29T23:24:38.853Z,32.15
2022-11-29T23:29:40.338Z,82.32
2022-11-29T23:34:41.859Z,106.63
2022-11-29T23:39:43.368Z,91.45
2022-11-29T23:44:45.210Z,96.40
2022-11-29T23:49:47.004Z,115.40
2022-11-29T23:54:48.744Z,110.35
2022-11-29T23:59:50.371Z,120.28
